Time;durP1;ratioP1;P1;durP2;ratioP2;P2;SDS_P1;SDS_P2;PMS_P1;PMS_P2;Temp;Humidity;BMP_temperature;BMP_pressure;BME280_temperature;BME280_humidity;BME280_pressure;Samples;Min_cycle;Max_cycle;Signal;HPM_P1;HPM_P2
2022/10/02 00:01:26;;;;;;;0.20;0.20;;;;;;;;;;4997636;28;20068;-84
2022/10/02 00:04:02;;;;;;;0.10;0.10;;;;;;;;;;5013991;28;20137;-84
2022/10/02 00:06:32;;;;;;;0.20;0.20;;;;;;;;;;4997879;28;20042;-83
2022/10/02 00:08:59;;;;;;;0.20;0.20;;;;;;;;;;4997883;28;20049;-84
2022/10/02 00:11:37;;;;;;;0.20;0.20;;;;;;;;;;4998204;28;20487;-84
2022/10/02 00:14:04;;;;;;;0.20;0.20;;;;;;;;;;4997544;28;20395;-84
2022/10/02 00:16:41;;;;;;;0.20;0.20;;;;;;;;;;4997417;28;20042;-84
2022/10/02 00:19:11;;;;;;;0.20;0.20;;;;;;;;;;5013441;28;20076;-85
2022/10/02 00:21:40;;;;;;;0.30;0.30;;;;;;;;;;4997311;28;20034;-85
2022/10/02 00:24:07;;;;;;;0.20;0.20;;;;;;;;;;4997068;28;20112;-85
2022/10/02 00:26:34;;;;;;;0.10;0.10;;;;;;;;;;4992062;28;20034;-84
2022/10/02 00:29:08;;;;;;;0.10;0.10;;;;;;;;;;4996881;28;20399;-84
2022/10/02 00:31:38;;;;;;;0.10;0.10;;;;;;;;;;4986929;28;20038;-84
2022/10/02 00:34:25;;;;;;;0.13;0.13;;;;;;;;;;4996594;28;20136;-84
2022/10/02 00:36:51;;;;;;;0.20;0.20;;;;;;;;;;4984627;28;20056;-84
2022/10/02 00:39:26;;;;;;;0.13;0.13;;;;;;;;;;4996841;28;20038;-84
2022/10/02 00:41:53;;;;;;;;;;;;;;;;;;4997254;28;20053;-85
2022/10/02 00:44:31;;;;;;;0.20;0.20;;;;;;;;;;4996379;28;19921;-84
2022/10/02 00:47:09;;;;;;;0.20;0.20;;;;;;;;;;4986859;28;20073;-85
2022/10/02 00:49:35;;;;;;;0.30;0.30;;;;;;;;;;4996720;28;20072;-85
2022/10/02 00:52:01;;;;;;;0.30;0.30;;;;;;;;;;4996480;28;20046;-84
2022/10/02 00:54:46;;;;;;;0.20;0.20;;;;;;;;;;4996383;28;20446;-84
2022/10/02 00:57:12;;;;;;;0.20;0.20;;;;;;;;;;5012044;28;20046;-85
2022/10/02 00:59:53;;;;;;;0.25;0.25;;;;;;;;;;4995991;28;20052;-85
2022/10/02 01:02:26;;;;;;;0.10;0.10;;;;;;;;;;4986410;28;20122;-85
2022/10/02 01:04:53;;;;;;;0.10;0.10;;;;;;;;;;4996123;28;20377;-85
2022/10/02 01:07:20;;;;;;;0.17;0.17;;;;;;;;;;4996622;28;20088;-85
2022/10/02 01:09:46;;;;;;;0.25;0.25;;;;;;;;;;4995717;28;20403;-85
2022/10/02 01:12:14;;;;;;;0.30;0.30;;;;;;;;;;4995532;28;20034;-85
2022/10/02 01:14:41;;;;;;;0.20;0.20;;;;;;;;;;4995678;28;20461;-85
2022/10/02 01:17:19;;;;;;;0.30;0.30;;;;;;;;;;4996705;28;20114;-85
2022/10/02 01:19:45;;;;;;;0.30;0.30;;;;;;;;;;4990294;28;20042;-84
2022/10/02 01:22:17;;;;;;;0.20;0.20;;;;;;;;;;5012479;28;20049;-84
2022/10/02 01:24:49;;;;;;;0.20;0.20;;;;;;;;;;4996072;28;20034;-84
2022/10/02 01:27:15;;;;;;;0.30;0.30;;;;;;;;;;4996117;28;20034;-84
2022/10/02 01:29:42;;;;;;;0.20;0.20;;;;;;;;;;4995831;28;20033;-85
2022/10/02 01:32:09;;;;;;;0.15;0.15;;;;;;;;;;5009598;28;20102;-84
2022/10/02 01:34:36;;;;;;;0.20;0.20;;;;;;;;;;4995787;28;20518;-85
2022/10/02 01:37:02;;;;;;;0.20;0.20;;;;;;;;;;5012329;28;20049;-84
2022/10/02 01:39:28;;;;;;;0.10;0.10;;;;;;;;;;4995793;28;20038;-84
2022/10/02 01:41:54;;;;;;;0.20;0.20;;;;;;;;;;4995367;28;20034;-85
2022/10/02 01:44:21;;;;;;;0.20;0.20;;;;;;;;;;5011579;28;20038;-85
2022/10/02 01:46:52;;;;;;;0.25;0.25;;;;;;;;;;4995916;28;20030;-85
2022/10/02 01:49:44;;;;;;;0.30;0.30;;;;;;;;;;5011742;28;20038;-84
2022/10/02 01:52:22;;;;;;;0.10;0.10;;;;;;;;;;4985005;28;20061;-85
2022/10/02 01:55:01;;;;;;;0.20;0.20;;;;;;;;;;4992703;28;20422;-85
2022/10/02 01:57:46;;;;;;;0.20;0.20;;;;;;;;;;4995458;28;20029;-85
2022/10/02 02:00:12;;;;;;;0.20;0.20;;;;;;;;;;5008767;28;20558;-84
2022/10/02 02:02:53;;;;;;;0.13;0.13;;;;;;;;;;4994990;28;20304;-85
2022/10/02 02:05:25;;;;;;;0.15;0.15;;;;;;;;;;4986002;28;20038;-85
2022/10/02 02:08:04;;;;;;;0.20;0.20;;;;;;;;;;4975827;28;20101;-85
2022/10/02 02:10:33;;;;;;;0.20;0.20;;;;;;;;;;4992287;28;20466;-85
2022/10/02 02:13:04;;;;;;;0.20;0.20;;;;;;;;;;5003998;28;20466;-85
2022/10/02 02:15:43;;;;;;;0.30;0.30;;;;;;;;;;4995600;28;20046;-84
2022/10/02 02:18:28;;;;;;;0.10;0.10;;;;;;;;;;5012241;28;20046;-84
2022/10/02 02:20:57;;;;;;;0.10;0.10;;;;;;;;;;4995192;28;20054;-84
2022/10/02 02:23:25;;;;;;;0.10;0.10;;;;;;;;;;5011567;28;20061;-84
2022/10/02 02:25:56;;;;;;;0.20;0.20;;;;;;;;;;4995396;28;20061;-84
2022/10/02 02:28:23;;;;;;;0.20;0.20;;;;;;;;;;5012020;28;20045;-84
2022/10/02 02:30:51;;;;;;;0.20;0.20;;;;;;;;;;4995080;28;20046;-84
2022/10/02 02:33:19;;;;;;;0.10;0.10;;;;;;;;;;4995151;28;20064;-84
2022/10/02 02:35:48;;;;;;;0.28;0.28;;;;;;;;;;5011481;28;20049;-85
2022/10/02 02:38:26;;;;;;;0.30;0.30;;;;;;;;;;4995174;28;20041;-84
2022/10/02 02:40:55;;;;;;;0.20;0.20;;;;;;;;;;4994429;28;20034;-84
2022/10/02 02:43:24;;;;;;;0.20;0.20;;;;;;;;;;4995042;28;20244;-84
2022/10/02 02:45:54;;;;;;;0.17;0.17;;;;;;;;;;4995101;28;20045;-85
2022/10/02 02:48:22;;;;;;;0.17;0.17;;;;;;;;;;4994909;28;20161;-84
2022/10/02 02:50:54;;;;;;;0.10;0.10;;;;;;;;;;4995032;28;20152;-84
2022/10/02 02:53:23;;;;;;;0.20;0.20;;;;;;;;;;4994782;28;20042;-84
2022/10/02 02:55:52;;;;;;;0.10;0.10;;;;;;;;;;4995317;28;20053;-84
2022/10/02 02:58:28;;;;;;;0.20;0.20;;;;;;;;;;4994825;28;20038;-84
2022/10/02 03:00:54;;;;;;;0.20;0.20;;;;;;;;;;4994788;28;20034;-84
2022/10/02 03:03:20;;;;;;;0.30;0.30;;;;;;;;;;4994565;28;20053;-84
2022/10/02 03:05:51;;;;;;;0.25;0.25;;;;;;;;;;5011505;28;20553;-84
2022/10/02 03:08:27;;;;;;;0.30;0.30;;;;;;;;;;4994983;28;20124;-84
2022/10/02 03:11:06;;;;;;;0.20;0.20;;;;;;;;;;4994475;28;20056;-84
2022/10/02 03:13:44;;;;;;;0.20;0.20;;;;;;;;;;4994795;28;20050;-84
2022/10/02 03:16:25;;;;;;;0.20;0.20;;;;;;;;;;4994780;28;20446;-84
2022/10/02 03:18:54;;;;;;;0.20;0.20;;;;;;;;;;5010954;28;20451;-84
2022/10/02 03:21:28;;;;;;;0.10;0.10;;;;;;;;;;5010821;28;20482;-84
2022/10/02 03:24:13;;;;;;;0.10;0.10;;;;;;;;;;4994369;28;20042;-84
2022/10/02 03:26:43;;;;;;;0.30;0.30;;;;;;;;;;4994680;28;20130;-84
2022/10/02 03:29:16;;;;;;;0.20;0.20;;;;;;;;;;4994697;28;20041;-84
2022/10/02 03:31:42;;;;;;;0.10;0.10;;;;;;;;;;4994451;28;20056;-83
2022/10/02 03:34:08;;;;;;;0.03;0.03;;;;;;;;;;4994595;28;20081;-84
2022/10/02 03:36:35;;;;;;;0.17;0.17;;;;;;;;;;5011044;28;20084;-84
2022/10/02 03:39:02;;;;;;;0.20;0.20;;;;;;;;;;4994283;28;20046;-84
2022/10/02 03:41:28;;;;;;;0.13;0.13;;;;;;;;;;4994441;28;20570;-84
2022/10/02 03:43:54;;;;;;;0.20;0.20;;;;;;;;;;4994257;28;20092;-85
2022/10/02 03:46:20;;;;;;;0.20;0.20;;;;;;;;;;4994706;28;20046;-84
2022/10/02 03:48:46;;;;;;;0.20;0.20;;;;;;;;;;4994443;28;20522;-84
2022/10/02 03:51:12;;;;;;;0.20;0.20;;;;;;;;;;4994336;28;20045;-85
2022/10/02 03:53:38;;;;;;;0.10;0.10;;;;;;;;;;4994299;28;20064;-84
2022/10/02 03:56:07;;;;;;;0.30;0.30;;;;;;;;;;5010666;28;20168;-84
2022/10/02 03:58:33;;;;;;;0.30;0.30;;;;;;;;;;4993907;28;20434;-84
2022/10/02 04:01:00;;;;;;;0.30;0.30;;;;;;;;;;4994080;28;20048;-84
2022/10/02 04:03:28;;;;;;;0.20;0.20;;;;;;;;;;4994275;28;20049;-84
2022/10/02 04:06:00;;;;;;;0.20;0.20;;;;;;;;;;4994266;28;20034;-84
2022/10/02 04:08:33;;;;;;;0.30;0.30;;;;;;;;;;4994234;28;20042;-84
2022/10/02 04:11:07;;;;;;;0.20;0.20;;;;;;;;;;4994055;28;20415;-84
2022/10/02 04:13:53;;;;;;;0.30;0.30;;;;;;;;;;4993974;28;20049;-84
2022/10/02 04:16:51;;;;;;;0.20;0.20;;;;;;;;;;4994038;28;20041;-84
2022/10/02 04:19:17;;;;;;;0.17;0.17;;;;;;;;;;4952011;28;20161;-84
2022/10/02 04:21:46;;;;;;;0.20;0.20;;;;;;;;;;4993917;28;20062;-84
2022/10/02 04:24:16;;;;;;;0.17;0.17;;;;;;;;;;4993837;28;20042;-84
2022/10/02 04:26:45;;;;;;;0.10;0.10;;;;;;;;;;4993949;28;20064;-84
2022/10/02 04:29:23;;;;;;;0.20;0.20;;;;;;;;;;4993660;28;20034;-84
2022/10/02 04:31:53;;;;;;;0.10;0.10;;;;;;;;;;5012313;28;20049;-84
2022/10/02 04:34:19;;;;;;;0.30;0.30;;;;;;;;;;5010590;28;20057;-84
2022/10/02 04:36:54;;;;;;;0.17;0.17;;;;;;;;;;5010497;28;20052;-84
2022/10/02 04:39:20;;;;;;;;;;;;;;;;;;4978236;28;20403;-84
2022/10/02 04:42:01;;;;;;;0.15;0.15;;;;;;;;;;4993937;28;19918;-84
2022/10/02 04:44:30;;;;;;;0.30;0.30;;;;;;;;;;4977971;28;20111;-84
2022/10/02 04:47:06;;;;;;;0.20;0.20;;;;;;;;;;4977726;28;20084;-84
2022/10/02 04:49:31;;;;;;;;;;;;;;;;;;4978054;28;20038;-84
2022/10/02 04:52:07;;;;;;;0.10;0.10;;;;;;;;;;4994415;28;20342;-84
2022/10/02 04:54:42;;;;;;;0.22;0.22;;;;;;;;;;4996983;28;20048;-84
2022/10/02 04:57:11;;;;;;;0.13;0.13;;;;;;;;;;4996871;28;20037;-84
2022/10/02 04:59:51;;;;;;;0.20;0.20;;;;;;;;;;5013312;28;20562;-84
2022/10/02 05:02:53;;;;;;;0.30;0.30;;;;;;;;;;4996918;28;20042;-84
2022/10/02 05:05:21;;;;;;;0.20;0.20;;;;;;;;;;4922111;29;20432;-84
2022/10/02 05:07:50;;;;;;;0.40;0.40;;;;;;;;;;4985861;28;20057;-84
2022/10/02 05:10:22;;;;;;;0.10;0.10;;;;;;;;;;4996622;28;20038;-84
2022/10/02 05:12:58;;;;;;;0.20;0.20;;;;;;;;;;4996679;28;20034;-84
2022/10/02 05:15:39;;;;;;;0.30;0.30;;;;;;;;;;4997026;28;20041;-83
2022/10/02 05:18:13;;;;;;;0.20;0.20;;;;;;;;;;5013248;28;20479;-84
2022/10/02 05:20:57;;;;;;;0.25;0.25;;;;;;;;;;4996256;28;20427;-84
2022/10/02 05:23:44;;;;;;;0.10;0.10;;;;;;;;;;4996553;28;20041;-84
2022/10/02 05:26:19;;;;;;;0.30;0.30;;;;;;;;;;4957346;28;20095;-84
2022/10/02 05:28:45;;;;;;;;;;;;;;;;;;4996864;28;20448;-84
2022/10/02 05:31:25;;;;;;;0.17;0.17;;;;;;;;;;5012520;28;20012;-84
2022/10/02 05:34:09;;;;;;;0.20;0.20;;;;;;;;;;4996205;28;20380;-84
2022/10/02 05:36:44;;;;;;;0.20;0.20;;;;;;;;;;4996380;28;20042;-84
2022/10/02 05:39:10;;;;;;;0.35;0.35;;;;;;;;;;4996077;28;20050;-84
2022/10/02 05:41:55;;;;;;;0.28;0.28;;;;;;;;;;5012293;28;20185;-84
2022/10/02 05:44:26;;;;;;;0.20;0.20;;;;;;;;;;4995620;28;20104;-84
2022/10/02 05:47:04;;;;;;;0.20;0.20;;;;;;;;;;4996346;28;20037;-84
2022/10/02 05:49:33;;;;;;;0.30;0.30;;;;;;;;;;4996098;28;20052;-84
2022/10/02 05:52:17;;;;;;;0.10;0.10;;;;;;;;;;4995786;28;20272;-84
2022/10/02 05:54:43;;;;;;;0.30;0.30;;;;;;;;;;4995914;28;20046;-84
2022/10/02 05:57:25;;;;;;;0.30;0.30;;;;;;;;;;4996009;28;20042;-84
2022/10/02 05:59:57;;;;;;;0.20;0.20;;;;;;;;;;4995657;28;20046;-84
2022/10/02 06:02:26;;;;;;;0.20;0.20;;;;;;;;;;4995719;28;20044;-84
2022/10/02 06:05:00;;;;;;;0.20;0.20;;;;;;;;;;4995780;28;20446;-84
2022/10/02 06:07:28;;;;;;;0.10;0.10;;;;;;;;;;4995854;28;20108;-84
2022/10/02 06:09:54;;;;;;;0.17;0.17;;;;;;;;;;4995483;28;20040;-84
2022/10/02 06:12:30;;;;;;;0.20;0.20;;;;;;;;;;4995781;28;20059;-85
2022/10/02 06:15:01;;;;;;;0.20;0.20;;;;;;;;;;4995990;28;20053;-84
2022/10/02 06:17:54;;;;;;;0.10;0.10;;;;;;;;;;4995489;28;20041;-84
2022/10/02 06:20:35;;;;;;;0.13;0.13;;;;;;;;;;5008375;28;20149;-84
2022/10/02 06:23:06;;;;;;;0.20;0.20;;;;;;;;;;5011252;28;20517;-84
2022/10/02 06:25:36;;;;;;;0.13;0.13;;;;;;;;;;4995548;28;20444;-84
2022/10/02 06:28:02;;;;;;;0.20;0.20;;;;;;;;;;4995294;28;20093;-84
2022/10/02 06:30:30;;;;;;;0.30;0.30;;;;;;;;;;4995194;28;20134;-84
2022/10/02 06:33:15;;;;;;;0.13;0.13;;;;;;;;;;4975495;28;20415;-84
2022/10/02 06:35:51;;;;;;;0.20;0.20;;;;;;;;;;4975897;28;20049;-84
2022/10/02 06:38:36;;;;;;;0.10;0.10;;;;;;;;;;5008221;28;20488;-84
2022/10/02 06:41:08;;;;;;;0.20;0.20;;;;;;;;;;4982783;28;20042;-84
2022/10/02 06:43:44;;;;;;;0.20;0.20;;;;;;;;;;4982789;28;20038;-83
2022/10/02 06:46:26;;;;;;;0.17;0.17;;;;;;;;;;4986908;28;20026;-84
2022/10/02 06:48:54;;;;;;;0.10;0.10;;;;;;;;;;4994846;28;20048;-84
2022/10/02 06:51:20;;;;;;;0.40;0.40;;;;;;;;;;4994783;28;20041;-84
2022/10/02 06:54:04;;;;;;;0.10;0.10;;;;;;;;;;5011143;28;20512;-84
2022/10/02 06:56:40;;;;;;;0.20;0.20;;;;;;;;;;4994044;28;20506;-84
2022/10/02 06:59:12;;;;;;;0.20;0.20;;;;;;;;;;4985596;28;20301;-84
2022/10/02 07:01:38;;;;;;;0.10;0.10;;;;;;;;;;4983127;28;20058;-83
2022/10/02 07:04:16;;;;;;;0.10;0.10;;;;;;;;;;4986182;28;20132;-84
2022/10/02 07:06:53;;;;;;;0.10;0.10;;;;;;;;;;4989118;28;20045;-84
2022/10/02 07:09:28;;;;;;;0.20;0.20;;;;;;;;;;4982272;28;20380;-83
2022/10/02 07:11:54;;;;;;;;;;;;;;;;;;5003523;28;20034;-84
2022/10/02 07:14:40;;;;;;;0.10;0.10;;;;;;;;;;5002947;28;20334;-84
2022/10/02 07:17:13;;;;;;;0.22;0.22;;;;;;;;;;4986010;28;20050;-84
2022/10/02 07:19:39;;;;;;;0.20;0.20;;;;;;;;;;5001023;28;20415;-84
2022/10/02 07:22:14;;;;;;;0.10;0.10;;;;;;;;;;5002532;28;20030;-85
2022/10/02 07:24:40;;;;;;;;;;;;;;;;;;4991435;28;20069;-84
2022/10/02 07:27:20;;;;;;;0.15;0.15;;;;;;;;;;4994323;28;19944;-84
2022/10/02 07:29:51;;;;;;;0.10;0.10;;;;;;;;;;4979806;28;20405;-84
2022/10/02 07:32:35;;;;;;;0.15;0.15;;;;;;;;;;4999855;28;20091;-85
2022/10/02 07:35:40;;;;;;;0.20;0.20;;;;;;;;;;5001496;28;20034;-85
2022/10/02 07:38:15;;;;;;;0.10;0.10;;;;;;;;;;4925600;29;20486;-85
2022/10/02 07:40:47;;;;;;;0.20;0.20;;;;;;;;;;4908375;29;20452;-85
2022/10/02 07:43:13;;;;;;;0.20;0.20;;;;;;;;;;4952662;28;20074;-85
2022/10/02 07:45:43;;;;;;;0.15;0.15;;;;;;;;;;4979752;28;20495;-85
2022/10/02 07:48:12;;;;;;;0.20;0.20;;;;;;;;;;4993153;28;20487;-84
2022/10/02 07:50:44;;;;;;;0.20;0.20;;;;;;;;;;4994317;28;20041;-85
2022/10/02 07:53:19;;;;;;;0.10;0.10;;;;;;;;;;4991046;28;20105;-85
2022/10/02 07:55:45;;;;;;;;;;;;;;;;;;4981885;28;20038;-85
2022/10/02 07:58:11;;;;;;;0.15;0.15;;;;;;;;;;4984978;28;20291;-85
2022/10/02 08:00:49;;;;;;;0.20;0.20;;;;;;;;;;4980062;28;20038;-84
2022/10/02 08:03:15;;;;;;;0.20;0.20;;;;;;;;;;4989430;28;20515;-84
2022/10/02 08:05:43;;;;;;;0.20;0.20;;;;;;;;;;5002762;28;20034;-85
2022/10/02 08:08:12;;;;;;;0.20;0.20;;;;;;;;;;4982060;28;20038;-85
2022/10/02 08:10:39;;;;;;;0.20;0.20;;;;;;;;;;4982141;28;20038;-85
2022/10/02 08:13:19;;;;;;;0.20;0.20;;;;;;;;;;4989819;28;20074;-85
2022/10/02 08:15:46;;;;;;;0.20;0.20;;;;;;;;;;4981826;28;20108;-85
2022/10/02 08:18:17;;;;;;;0.20;0.20;;;;;;;;;;5000690;28;20038;-85
2022/10/02 08:20:45;;;;;;;0.20;0.20;;;;;;;;;;5014529;28;20486;-85
2022/10/02 08:23:22;;;;;;;0.10;0.10;;;;;;;;;;4991850;28;20137;-85
2022/10/02 08:25:54;;;;;;;0.10;0.10;;;;;;;;;;4988007;28;20411;-85
2022/10/02 08:28:24;;;;;;;0.28;0.28;;;;;;;;;;4987369;28;20034;-85
2022/10/02 08:30:50;;;;;;;0.10;0.10;;;;;;;;;;4988963;28;20447;-85
2022/10/02 08:33:23;;;;;;;0.10;0.10;;;;;;;;;;4988983;28;20100;-85
2022/10/02 08:36:08;;;;;;;0.20;0.20;;;;;;;;;;4987733;28;20033;-85
2022/10/02 08:38:37;;;;;;;0.10;0.10;;;;;;;;;;4989185;28;20380;-85
2022/10/02 08:41:23;;;;;;;0.10;0.10;;;;;;;;;;4986490;28;20129;-85
2022/10/02 08:43:55;;;;;;;0.10;0.10;;;;;;;;;;4992599;28;20037;-85
2022/10/02 08:46:30;;;;;;;0.30;0.30;;;;;;;;;;4996586;28;20168;-85
2022/10/02 08:49:05;;;;;;;0.10;0.10;;;;;;;;;;4996235;28;20068;-85
2022/10/02 08:51:50;;;;;;;0.10;0.10;;;;;;;;;;5012512;28;20073;-86
2022/10/02 08:54:35;;;;;;;0.20;0.20;;;;;;;;;;4982829;28;20120;-86
2022/10/02 08:57:07;;;;;;;0.20;0.20;;;;;;;;;;4988784;28;20042;-86
2022/10/02 08:59:45;;;;;;;0.10;0.10;;;;;;;;;;4985216;28;20066;-86
2022/10/02 09:02:29;;;;;;;0.30;0.30;;;;;;;;;;4990051;28;20042;-86
2022/10/02 09:05:14;;;;;;;0.13;0.13;;;;;;;;;;4989421;28;20504;-86
2022/10/02 09:08:07;;;;;;;0.20;0.20;;;;;;;;;;4978066;28;20039;-86
2022/10/02 09:10:36;;;;;;;0.10;0.10;;;;;;;;;;4987622;28;20467;-86
2022/10/02 09:13:22;;;;;;;0.05;0.05;;;;;;;;;;4985490;28;20092;-86
2022/10/02 09:15:51;;;;;;;0.10;0.10;;;;;;;;;;4985584;28;20066;-85
2022/10/02 09:18:37;;;;;;;0.13;0.13;;;;;;;;;;4988167;28;20044;-86
2022/10/02 09:21:03;;;;;;;0.10;0.10;;;;;;;;;;4986936;28;20466;-85
2022/10/02 09:23:29;;;;;;;0.20;0.20;;;;;;;;;;4995099;28;20034;-86
2022/10/02 09:25:57;;;;;;;0.10;0.10;;;;;;;;;;5006052;28;20380;-86
2022/10/02 09:28:35;;;;;;;0.15;0.15;;;;;;;;;;4994364;28;20041;-86
2022/10/02 09:31:02;;;;;;;0.15;0.15;;;;;;;;;;4994193;28;20038;-86
2022/10/02 09:33:43;;;;;;;0.10;0.10;;;;;;;;;;4995615;28;20041;-86
2022/10/02 09:36:09;;;;;;;0.10;0.10;;;;;;;;;;4995919;28;20522;-87
2022/10/02 09:38:54;;;;;;;0.20;0.20;;;;;;;;;;4993901;28;20038;-86
2022/10/02 09:41:22;;;;;;;0.10;0.10;;;;;;;;;;5008508;28;20069;-86
2022/10/02 09:43:50;;;;;;;0.20;0.20;;;;;;;;;;4994018;28;20466;-86
2022/10/02 09:46:21;;;;;;;0.10;0.10;;;;;;;;;;4986295;28;20048;-87
2022/10/02 09:48:49;;;;;;;0.20;0.20;;;;;;;;;;4986938;28;20042;-84
2022/10/02 09:51:22;;;;;;;0.10;0.10;;;;;;;;;;4986385;28;20132;-87
2022/10/02 09:54:17;;;;;;;0.10;0.10;;;;;;;;;;4986420;28;20129;-86
2022/10/02 09:56:44;;;;;;;0.10;0.10;;;;;;;;;;4981648;28;20038;-86
2022/10/02 09:59:13;;;;;;;0.15;0.15;;;;;;;;;;4987192;28;20538;-86
2022/10/02 10:01:53;;;;;;;0.15;0.15;;;;;;;;;;4985800;28;20141;-87
2022/10/02 10:04:32;;;;;;;0.20;0.20;;;;;;;;;;4979837;28;20034;-86
2022/10/02 10:07:17;;;;;;;0.20;0.20;;;;;;;;;;4987123;28;20136;-86
2022/10/02 10:09:46;;;;;;;0.13;0.13;;;;;;;;;;4985696;28;20128;-86
2022/10/02 10:12:31;;;;;;;0.10;0.10;;;;;;;;;;4988867;28;20042;-86
2022/10/02 10:15:14;;;;;;;0.10;0.10;;;;;;;;;;4984230;28;20515;-87
2022/10/02 10:17:43;;;;;;;0.20;0.20;;;;;;;;;;4989088;28;20458;-87
2022/10/02 10:20:24;;;;;;;0.20;0.20;;;;;;;;;;4993709;28;20042;-87
2022/10/02 10:23:08;;;;;;;0.10;0.10;;;;;;;;;;5010256;28;20038;-86
2022/10/02 10:25:53;;;;;;;0.10;0.10;;;;;;;;;;4992541;28;20033;-87
2022/10/02 10:28:32;;;;;;;0.10;0.10;;;;;;;;;;4985539;28;20060;-87
2022/10/02 10:31:20;;;;;;;0.20;0.20;;;;;;;;;;4986335;28;20492;-87
2022/10/02 10:33:49;;;;;;;0.10;0.10;;;;;;;;;;4989597;28;20060;-87
2022/10/02 10:39:38;;;;;;;0.25;0.25;;;;;;;;;;5000591;28;20132;-87
2022/10/02 10:42:23;;;;;;;0.13;0.13;;;;;;;;;;4984919;28;20458;-87
2022/10/02 10:44:49;;;;;;;0.10;0.10;;;;;;;;;;4988445;28;20045;-87
2022/10/02 10:47:34;;;;;;;0.10;0.10;;;;;;;;;;4994382;28;20034;-87
2022/10/02 10:50:03;;;;;;;0.10;0.10;;;;;;;;;;4990240;28;20053;-87
2022/10/02 10:52:49;;;;;;;0.10;0.10;;;;;;;;;;4991543;28;20049;-87
2022/10/02 10:55:34;;;;;;;0.85;0.82;;;;;;;;;;5006472;28;20561;-87
2022/10/02 10:58:03;;;;;;;0.08;0.08;;;;;;;;;;5009665;28;20045;-87
2022/10/02 11:00:36;;;;;;;0.10;0.10;;;;;;;;;;4987719;28;20077;-86
2022/10/02 11:03:05;;;;;;;0.10;0.10;;;;;;;;;;5006465;28;20494;-87
2022/10/02 11:05:50;;;;;;;0.10;0.10;;;;;;;;;;4987201;28;20042;-87
2022/10/02 11:08:35;;;;;;;0.15;0.15;;;;;;;;;;4987531;28;20073;-87
2022/10/02 11:11:19;;;;;;;0.10;0.10;;;;;;;;;;4999194;28;20057;-87
2022/10/02 11:14:07;;;;;;;0.10;0.10;;;;;;;;;;4987930;28;20038;-87
2022/10/02 11:16:52;;;;;;;0.10;0.10;;;;;;;;;;4979938;28;20180;-87
2022/10/02 11:19:40;;;;;;;0.15;0.15;;;;;;;;;;4990313;28;20544;-87
2022/10/02 11:22:24;;;;;;;0.10;0.10;;;;;;;;;;4981174;28;20041;-87
2022/10/02 11:24:50;;;;;;;0.10;0.10;;;;;;;;;;4983758;28;20479;-87
2022/10/02 11:27:29;;;;;;;0.25;0.25;;;;;;;;;;5001916;28;20045;-87
2022/10/02 11:30:01;;;;;;;0.10;0.10;;;;;;;;;;4984933;28;20133;-87
2022/10/02 11:32:41;;;;;;;0.10;0.10;;;;;;;;;;5002921;28;20088;-87
2022/10/02 11:35:18;;;;;;;0.10;0.10;;;;;;;;;;4980448;28;20057;-87
2022/10/02 11:37:47;;;;;;;0.10;0.10;;;;;;;;;;4984107;28;20049;-87
2022/10/02 11:40:32;;;;;;;0.10;0.10;;;;;;;;;;4985758;28;20129;-87
2022/10/02 11:43:02;;;;;;;0.10;0.10;;;;;;;;;;4986273;28;20050;-87
2022/10/02 11:45:47;;;;;;;0.10;0.10;;;;;;;;;;5006520;28;20092;-87
2022/10/02 11:48:13;;;;;;;;;;;;;;;;;;4990776;28;20052;-87
2022/10/02 11:50:45;;;;;;;0.10;0.10;;;;;;;;;;5012055;28;20334;-87
2022/10/02 11:53:11;;;;;;;0.20;0.20;;;;;;;;;;4991007;28;20046;-87
2022/10/02 11:55:44;;;;;;;0.10;0.10;;;;;;;;;;4986918;28;20042;-87
2022/10/02 11:58:10;;;;;;;0.20;0.20;;;;;;;;;;4986292;28;20053;-87
2022/10/02 12:00:51;;;;;;;0.10;0.10;;;;;;;;;;4985306;28;20046;-87
2022/10/02 12:03:24;;;;;;;0.10;0.10;;;;;;;;;;4988335;28;20041;-87
2022/10/02 12:06:09;;;;;;;0.25;0.25;;;;;;;;;;4988801;28;20120;-88
2022/10/02 12:08:54;;;;;;;0.10;0.10;;;;;;;;;;4990065;28;20512;-88
2022/10/02 12:11:24;;;;;;;0.10;0.10;;;;;;;;;;4994687;28;20038;-87
2022/10/02 12:13:50;;;;;;;0.00;0.00;;;;;;;;;;4987933;28;20403;-87
2022/10/02 12:16:18;;;;;;;0.20;0.20;;;;;;;;;;4997403;28;20052;-87
2022/10/02 12:18:53;;;;;;;0.10;0.10;;;;;;;;;;4993243;28;20041;-86
2022/10/02 12:27:17;;;;;;;0.10;0.10;;;;;;;;;;5011728;28;20045;-86
2022/10/02 12:29:56;;;;;;;0.10;0.10;;;;;;;;;;5015385;28;20073;-87
2022/10/02 12:32:40;;;;;;;0.10;0.10;;;;;;;;;;4983735;28;20042;-87
2022/10/02 12:35:06;;;;;;;0.10;0.10;;;;;;;;;;4996128;28;20490;-87
2022/10/02 12:37:39;;;;;;;0.17;0.17;;;;;;;;;;4995804;28;20038;-88
2022/10/02 12:40:13;;;;;;;0.17;0.17;;;;;;;;;;4994848;28;20045;-87
2022/10/02 12:42:48;;;;;;;0.10;0.10;;;;;;;;;;4981588;28;20096;-88
2022/10/02 12:45:17;;;;;;;0.10;0.10;;;;;;;;;;4995168;28;20046;-88
2022/10/02 12:48:02;;;;;;;0.10;0.10;;;;;;;;;;4995865;28;20053;-89
2022/10/02 12:50:28;;;;;;;0.10;0.10;;;;;;;;;;4984499;28;20127;-88
2022/10/02 12:53:28;;;;;;;0.10;0.10;;;;;;;;;;4995220;28;20038;-88
2022/10/02 12:56:23;;;;;;;0.10;0.10;;;;;;;;;;4937423;28;20050;-88
2022/10/02 12:59:05;;;;;;;0.10;0.10;;;;;;;;;;4913412;28;20055;-88
2022/10/02 13:01:31;;;;;;;0.10;0.10;;;;;;;;;;4996184;28;20050;-88
2022/10/02 13:04:15;;;;;;;0.10;0.10;;;;;;;;;;4986957;28;20044;-88
2022/10/02 13:06:48;;;;;;;0.30;0.30;;;;;;;;;;4986745;28;20041;-88
2022/10/02 13:09:33;;;;;;;0.20;0.20;;;;;;;;;;5012364;28;20057;-88
2022/10/02 13:11:59;;;;;;;0.13;0.13;;;;;;;;;;5011520;28;20073;-88
2022/10/02 13:14:28;;;;;;;0.10;0.10;;;;;;;;;;4996746;28;20069;-87
2022/10/02 13:16:55;;;;;;;0.10;0.10;;;;;;;;;;4996781;28;20087;-88
2022/10/02 13:19:30;;;;;;;0.10;0.10;;;;;;;;;;4997674;28;20064;-88
2022/10/02 13:22:15;;;;;;;0.13;0.13;;;;;;;;;;4990436;28;20046;-89
2022/10/02 13:25:00;;;;;;;0.10;0.10;;;;;;;;;;4985778;28;20499;-88
2022/10/02 13:27:29;;;;;;;0.10;0.10;;;;;;;;;;4993213;28;20076;-88
2022/10/02 13:30:01;;;;;;;0.10;0.10;;;;;;;;;;4995210;28;20034;-88
2022/10/02 13:32:33;;;;;;;0.20;0.20;;;;;;;;;;4992951;28;20491;-87
2022/10/02 13:35:02;;;;;;;0.10;0.10;;;;;;;;;;4992571;28;20046;-88
2022/10/02 13:37:28;;;;;;;0.20;0.20;;;;;;;;;;4984881;28;20045;-88
2022/10/02 13:40:02;;;;;;;0.10;0.10;;;;;;;;;;4988065;28;20109;-88
2022/10/02 13:42:37;;;;;;;0.22;0.22;;;;;;;;;;4986346;28;20068;-87
2022/10/02 13:45:04;;;;;;;0.10;0.10;;;;;;;;;;4982958;28;20053;-87
2022/10/02 13:47:49;;;;;;;0.10;0.10;;;;;;;;;;4990656;28;20088;-87
2022/10/02 13:50:24;;;;;;;0.20;0.20;;;;;;;;;;4984055;28;20037;-88
2022/10/02 13:53:04;;;;;;;0.20;0.20;;;;;;;;;;4989235;28;20061;-87
2022/10/02 13:56:02;;;;;;;0.20;0.20;;;;;;;;;;4993744;28;20045;-87
2022/10/02 13:58:44;;;;;;;0.10;0.10;;;;;;;;;;4948539;28;20408;-87
2022/10/02 14:01:17;;;;;;;0.10;0.10;;;;;;;;;;4980823;28;20049;-85
2022/10/02 14:03:50;;;;;;;0.10;0.10;;;;;;;;;;4984380;28;20038;-86
2022/10/02 14:06:20;;;;;;;0.10;0.10;;;;;;;;;;4988309;28;20462;-88
2022/10/02 14:08:52;;;;;;;0.15;0.15;;;;;;;;;;4988748;28;20042;-87
2022/10/02 14:11:18;;;;;;;0.05;0.05;;;;;;;;;;4986224;28;20041;-88
2022/10/02 14:13:47;;;;;;;0.10;0.10;;;;;;;;;;4983338;28;20076;-87
2022/10/02 14:16:24;;;;;;;0.10;0.10;;;;;;;;;;4981270;28;20073;-87
2022/10/02 14:18:58;;;;;;;0.08;0.08;;;;;;;;;;5003557;28;20137;-89
2022/10/02 14:21:34;;;;;;;0.20;0.20;;;;;;;;;;4988492;28;20085;-88
2022/10/02 14:24:09;;;;;;;0.10;0.10;;;;;;;;;;4987916;28;20078;-91
2022/10/02 14:26:44;;;;;;;0.20;0.20;;;;;;;;;;4982620;28;20029;-89
2022/10/02 14:29:29;;;;;;;0.10;0.10;;;;;;;;;;4987878;28;20038;-90
2022/10/02 14:32:04;;;;;;;0.20;0.20;;;;;;;;;;4985343;28;20042;-90
2022/10/02 14:34:33;;;;;;;0.15;0.15;;;;;;;;;;4989718;28;20042;-89
2022/10/02 14:37:18;;;;;;;0.10;0.10;;;;;;;;;;4990789;28;20073;-89
2022/10/02 14:39:44;;;;;;;0.20;0.20;;;;;;;;;;4992315;28;20042;-92
2022/10/02 14:42:13;;;;;;;0.20;0.20;;;;;;;;;;4987130;28;20038;-91
2022/10/02 14:44:45;;;;;;;0.10;0.10;;;;;;;;;;4996394;28;20038;-91
2022/10/02 14:47:37;;;;;;;0.10;0.10;;;;;;;;;;4988044;28;20131;-90
2022/10/02 14:50:03;;;;;;;0.10;0.10;;;;;;;;;;4982581;28;20084;-90
2022/10/02 14:52:41;;;;;;;0.10;0.10;;;;;;;;;;4993168;28;20045;-91
2022/10/02 14:55:15;;;;;;;0.10;0.10;;;;;;;;;;5010502;28;20057;-91
2022/10/02 14:58:00;;;;;;;0.10;0.10;;;;;;;;;;4989832;28;20399;-91
2022/10/02 15:00:32;;;;;;;0.15;0.15;;;;;;;;;;4981791;28;20046;-90
2022/10/02 15:03:17;;;;;;;0.10;0.10;;;;;;;;;;4986668;28;20050;-91
2022/10/02 15:05:46;;;;;;;0.10;0.10;;;;;;;;;;4989059;28;20518;-89
2022/10/02 15:08:17;;;;;;;0.10;0.10;;;;;;;;;;4988561;28;20048;-89
2022/10/02 15:10:44;;;;;;;0.10;0.10;;;;;;;;;;4996263;28;20045;-90
2022/10/02 15:13:25;;;;;;;0.10;0.10;;;;;;;;;;5007316;28;20049;-90
2022/10/02 15:18:58;;;;;;;0.20;0.20;;;;;;;;;;5000062;28;20449;-91
2022/10/02 15:21:26;;;;;;;0.10;0.10;;;;;;;;;;4985235;28;20525;-90
2022/10/02 15:23:55;;;;;;;0.10;0.10;;;;;;;;;;5002799;28;20033;-90
2022/10/02 15:26:40;;;;;;;0.13;0.13;;;;;;;;;;4991267;28;20503;-89
2022/10/02 15:29:19;;;;;;;0.10;0.10;;;;;;;;;;4984583;28;20046;-89
2022/10/02 15:32:05;;;;;;;0.10;0.10;;;;;;;;;;4988572;28;20053;-90
2022/10/02 15:34:38;;;;;;;0.15;0.15;;;;;;;;;;5001815;28;20044;-90
2022/10/02 15:37:07;;;;;;;0.10;0.10;;;;;;;;;;4992507;28;20080;-90
2022/10/02 15:39:40;;;;;;;0.20;0.20;;;;;;;;;;4988858;28;20099;-90